Time;durP1;ratioP1;P1;durP2;ratioP2;P2;SDS_P1;SDS_P2;PMS_P1;PMS_P2;Temp;Humidity;BMP_temperature;BMP_pressure;BME280_temperature;BME280_humidity;BME280_pressure;Samples;Min_cycle;Max_cycle;Signal;HPM_P1;HPM_P2
2023/04/28 00:01:43;;;;;;;5.20;4.10;;;;;;;9.46;56.39;95066.72;5054329;28;20810;-85
2023/04/28 00:04:10;;;;;;;4.90;3.27;;;;;;;9.39;56.00;95064.69;5053931;28;20498;-84
2023/04/28 00:06:37;;;;;;;4.47;3.70;;;;;;;9.35;53.75;95064.09;5054161;28;20447;-84
2023/04/28 00:09:04;;;;;;;4.03;3.60;;;;;;;9.25;54.68;95061.38;5054144;28;20548;-84
2023/04/28 00:11:30;;;;;;;6.50;4.07;;;;;;;9.16;55.25;95074.31;5054085;28;20871;-84
2023/04/28 00:13:58;;;;;;;7.30;4.40;;;;;;;9.04;55.57;95068.25;5068527;28;20443;-84
2023/04/28 00:16:25;;;;;;;3.97;3.57;;;;;;;9.11;57.58;95071.22;5054322;28;20444;-84
2023/04/28 00:18:52;;;;;;;4.83;4.30;;;;;;;9.12;55.45;95059.78;5054151;28;20775;-86
2023/04/28 00:21:19;;;;;;;9.87;4.30;;;;;;;9.10;57.20;95065.16;5053930;28;20938;-84
2023/04/28 00:23:49;;;;;;;4.13;3.70;;;;;;;9.05;54.44;95063.84;5061220;28;20456;-85
2023/04/28 00:26:16;;;;;;;8.50;4.20;;;;;;;8.88;55.57;95065.94;5037810;28;20825;-84
2023/04/28 00:28:43;;;;;;;8.13;4.73;;;;;;;8.85;56.52;95075.78;5054500;28;20449;-84
2023/04/28 00:31:14;;;;;;;5.67;4.70;;;;;;;8.88;57.06;95067.72;5054325;28;20569;-84
2023/04/28 00:33:42;;;;;;;7.07;3.80;;;;;;;8.93;56.75;95070.81;5053795;28;20526;-84
2023/04/28 00:36:10;;;;;;;7.90;4.50;;;;;;;8.99;56.02;95067.75;5054089;28;20524;-84
2023/04/28 00:38:37;;;;;;;5.30;3.80;;;;;;;8.87;55.22;95076.50;5053870;28;20451;-84
2023/04/28 00:41:04;;;;;;;5.20;3.90;;;;;;;8.76;56.93;95072.09;5055281;28;20439;-84
2023/04/28 00:43:31;;;;;;;8.00;4.77;;;;;;;8.77;56.15;95083.41;5053923;28;20447;-84
2023/04/28 00:45:58;;;;;;;5.70;4.73;;;;;;;8.69;56.28;95073.50;5053511;28;20454;-84
2023/04/28 00:48:26;;;;;;;9.43;6.00;;;;;;;8.68;57.15;95079.69;5054205;28;20459;-84
2023/04/28 00:50:53;;;;;;;7.73;4.97;;;;;;;8.66;57.55;95077.16;5053711;28;20458;-84
2023/04/28 00:53:20;;;;;;;8.47;6.00;;;;;;;8.76;58.48;95076.50;5053797;28;20454;-84
2023/04/28 00:55:48;;;;;;;6.77;5.47;;;;;;;8.80;57.00;95075.31;5053925;28;20459;-84
2023/04/28 00:58:14;;;;;;;4.23;3.80;;;;;;;8.84;57.06;95074.13;5053607;28;20534;-84
2023/04/28 01:00:41;;;;;;;4.23;3.80;;;;;;;8.78;56.09;95079.84;5053545;28;20925;-84
2023/04/28 01:03:08;;;;;;;4.13;3.83;;;;;;;8.65;57.27;95080.72;5053498;28;20456;-84
2023/04/28 01:05:37;;;;;;;6.00;3.40;;;;;;;8.72;57.53;95085.53;5053582;28;20492;-84
2023/04/28 01:08:04;;;;;;;5.40;4.13;;;;;;;8.63;57.08;95076.56;5053095;28;20934;-84
2023/04/28 01:10:31;;;;;;;4.90;4.40;;;;;;;8.71;57.78;95084.69;5067259;28;20438;-84
2023/04/28 01:12:58;;;;;;;6.90;3.70;;;;;;;8.67;57.50;95089.31;5018255;28;20486;-84
2023/04/28 01:15:26;;;;;;;4.87;3.83;;;;;;;8.55;59.10;95090.22;5053340;28;20443;-84
2023/04/28 01:17:52;;;;;;;6.87;4.10;;;;;;;8.50;57.60;95089.72;5052849;28;20447;-84
2023/04/28 01:20:19;;;;;;;3.73;3.33;;;;;;;8.60;58.06;95090.69;5052988;28;20439;-84
2023/04/28 01:22:48;;;;;;;5.80;4.63;;;;;;;8.54;56.91;95088.53;5052924;28;20458;-84
2023/04/28 01:25:16;;;;;;;11.07;6.27;;;;;;;8.52;56.92;95097.44;5053213;28;20451;-84
2023/04/28 01:27:43;;;;;;;9.27;6.33;;;;;;;8.47;58.12;95097.78;5053367;28;20466;-84
2023/04/28 01:30:10;;;;;;;6.63;4.67;;;;;;;8.49;56.89;95097.69;5067338;28;20439;-83
2023/04/28 01:32:37;;;;;;;7.63;4.50;;;;;;;8.36;57.00;95097.72;5053051;28;20549;-84
2023/04/28 01:35:04;;;;;;;4.63;4.07;;;;;;;8.30;57.62;95104.19;5053250;28;20497;-84
2023/04/28 01:37:30;;;;;;;7.67;6.00;;;;;;;8.38;57.43;95107.16;5053426;28;20479;-84
2023/04/28 01:39:57;;;;;;;9.63;5.50;;;;;;;8.29;57.52;95093.84;5053332;28;20490;-84
2023/04/28 01:42:25;;;;;;;8.90;5.60;;;;;;;8.26;56.67;95099.31;5053286;28;20447;-84
2023/04/28 01:44:52;;;;;;;7.53;4.50;;;;;;;8.29;57.38;95093.84;5053172;28;20446;-85
2023/04/28 01:47:19;;;;;;;7.90;5.00;;;;;;;8.26;57.43;95099.31;5053148;28;20504;-84
2023/04/28 01:49:47;;;;;;;7.27;4.87;;;;;;;8.26;57.62;95099.31;5052749;28;20962;-85
2023/04/28 01:52:13;;;;;;;5.87;4.10;;;;;;;8.41;57.37;95097.41;5051750;28;20482;-84
2023/04/28 01:54:40;;;;;;;5.03;4.27;;;;;;;8.40;57.16;95095.75;5016954;28;20446;-84
2023/04/28 01:57:07;;;;;;;5.00;4.50;;;;;;;8.28;56.85;95093.03;5052503;28;20443;-84
2023/04/28 01:59:35;;;;;;;4.73;4.20;;;;;;;8.25;56.80;95097.66;5052233;28;20451;-84
2023/04/28 02:02:02;;;;;;;5.27;3.93;;;;;;;8.29;57.26;95099.09;5052521;28;20447;-84
2023/04/28 02:04:28;;;;;;;5.13;4.67;;;;;;;8.31;56.10;95098.03;5054206;28;20427;-84
2023/04/28 02:06:55;;;;;;;8.67;4.37;;;;;;;8.27;56.64;95103.59;5067998;28;20449;-84
2023/04/28 02:09:22;;;;;;;5.37;4.07;;;;;;;8.16;57.52;95088.69;5053899;28;20451;-84
2023/04/28 02:11:49;;;;;;;7.00;5.23;;;;;;;8.29;58.59;95094.69;5053498;28;20465;-84
2023/04/28 02:14:15;;;;;;;9.30;6.47;;;;;;;8.27;57.03;95100.97;5060912;28;20927;-84
2023/04/28 02:16:44;;;;;;;5.70;4.73;;;;;;;8.34;56.40;95102.22;5073335;28;20429;-84
2023/04/28 02:19:11;;;;;;;7.00;4.40;;;;;;;8.21;56.70;95106.66;5073510;28;20449;-84
2023/04/28 02:21:37;;;;;;;4.37;3.97;;;;;;;8.02;57.04;95094.91;5073274;28;20438;-84
2023/04/28 02:24:05;;;;;;;5.20;4.70;;;;;;;7.95;58.00;95109.34;5073343;28;20436;-84
2023/04/28 02:26:33;;;;;;;8.73;3.80;;;;;;;7.89;58.01;95114.19;5073400;28;20446;-84
2023/04/28 02:29:00;;;;;;;6.90;4.53;;;;;;;7.89;58.28;95115.00;5073454;28;20432;-84
2023/04/28 02:31:27;;;;;;;7.13;4.20;;;;;;;7.92;58.65;95122.63;5073130;28;20905;-84
2023/04/28 02:33:55;;;;;;;9.83;4.00;;;;;;;7.97;58.03;95119.69;5073319;28;20511;-84
2023/04/28 02:36:22;;;;;;;4.40;4.03;;;;;;;7.94;58.27;95110.28;5073538;28;20530;-84
2023/04/28 02:38:48;;;;;;;5.47;3.97;;;;;;;7.91;59.04;95122.75;5073599;28;20437;-84
2023/04/28 02:41:15;;;;;;;5.30;4.47;;;;;;;8.02;60.13;95121.03;5073783;28;20437;-84
2023/04/28 02:43:42;;;;;;;5.60;4.07;;;;;;;7.99;58.59;95123.88;5073102;28;20441;-84
2023/04/28 02:46:10;;;;;;;4.30;3.90;;;;;;;8.10;58.40;95130.13;5073466;28;21113;-84
2023/04/28 02:48:36;;;;;;;4.70;3.73;;;;;;;8.14;57.98;95124.56;5073621;28;20845;-84
2023/04/28 02:57:48;;;;;;;9.90;4.20;;;;;;;8.23;59.61;95129.13;5072334;28;20442;-84
2023/04/28 03:00:16;;;;;;;5.53;3.63;;;;;;;8.16;58.47;95137.53;5072974;28;20832;-84
2023/04/28 03:02:42;;;;;;;7.67;4.10;;;;;;;8.26;57.92;95133.28;5071838;28;20447;-84
2023/04/28 03:05:09;;;;;;;5.30;3.87;;;;;;;8.35;58.16;95136.09;5076795;28;20928;-83
2023/04/28 03:07:36;;;;;;;7.17;3.60;;;;;;;8.34;57.75;95136.22;5076519;28;20429;-84
2023/04/28 03:10:03;;;;;;;5.77;4.27;;;;;;;8.42;58.04;95146.97;5077057;28;20429;-84
2023/04/28 03:12:30;;;;;;;5.40;3.97;;;;;;;8.38;58.07;95140.28;5076645;28;20885;-84
2023/04/28 03:14:58;;;;;;;5.60;3.90;;;;;;;8.33;57.55;95138.00;5076417;28;21210;-84
2023/04/28 03:17:25;;;;;;;5.90;3.60;;;;;;;8.33;58.04;95140.63;5076242;28;20502;-83
2023/04/28 03:19:52;;;;;;;9.47;4.40;;;;;;;8.34;57.26;95136.22;5077209;28;20431;-84
2023/04/28 03:22:19;;;;;;;7.80;4.87;;;;;;;8.42;58.41;95146.16;5076624;28;20437;-84
2023/04/28 03:24:45;;;;;;;6.50;3.70;;;;;;;8.44;57.04;95150.31;5077028;28;20430;-84
2023/04/28 03:27:12;;;;;;;4.50;4.10;;;;;;;8.39;57.90;95147.22;5042530;28;20450;-84
2023/04/28 03:29:39;;;;;;;11.30;4.30;;;;;;;8.37;57.87;95157.75;5076676;28;20426;-85
2023/04/28 03:32:07;;;;;;;6.33;4.13;;;;;;;8.45;57.66;95165.06;5076786;28;20484;-84
2023/04/28 03:34:34;;;;;;;3.70;3.40;;;;;;;8.47;57.78;95165.78;5076552;28;20446;-84
2023/04/28 03:37:01;;;;;;;6.50;4.00;;;;;;;8.45;56.40;95174.69;5077737;28;20793;-84
2023/04/28 03:39:28;;;;;;;11.63;4.03;;;;;;;8.23;56.07;95172.72;5076686;28;20500;-84
2023/04/28 03:41:55;;;;;;;12.47;4.50;;;;;;;8.31;56.63;95173.84;5076344;28;20958;-84
2023/04/28 03:44:22;;;;;;;5.83;4.43;;;;;;;8.30;56.70;95181.81;5076354;28;20927;-84
2023/04/28 03:46:49;;;;;;;8.50;4.40;;;;;;;8.22;56.42;95176.28;5077134;28;20842;-85
2023/04/28 03:49:17;;;;;;;5.20;3.53;;;;;;;8.17;56.76;95183.63;5076634;28;20434;-85
2023/04/28 03:51:44;;;;;;;4.40;4.00;;;;;;;8.20;56.45;95183.41;5076137;28;20454;-85
2023/04/28 03:54:11;;;;;;;7.57;4.10;;;;;;;8.41;56.71;95195.00;5076632;28;20468;-84
2023/04/28 03:56:38;;;;;;;7.13;3.90;;;;;;;8.76;55.96;95191.63;5075545;28;20454;-84
2023/04/28 03:59:05;;;;;;;4.73;3.50;;;;;;;8.96;54.13;95183.13;5076046;28;20442;-84
2023/04/28 04:01:32;;;;;;;4.37;3.97;;;;;;;9.15;54.94;95193.91;5075963;28;20455;-85
2023/04/28 04:03:59;;;;;;;7.83;4.10;;;;;;;9.61;53.20;95199.16;5076417;28;20431;-85
2023/04/28 04:06:27;;;;;;;3.97;3.10;;;;;;;9.93;51.16;95195.84;5075592;28;20918;-85
2023/04/28 04:08:54;;;;;;;5.03;3.33;;;;;;;10.36;50.54;95193.34;5076048;28;20439;-85
2023/04/28 04:15:14;;;;;;;4.23;3.50;;;;;;;11.64;46.15;95219.66;5075152;28;20392;-85
2023/04/28 04:17:41;;;;;;;5.97;3.93;;;;;;;12.02;46.77;95219.06;5075064;28;20812;-83
2023/04/28 04:20:08;;;;;;;5.40;4.10;;;;;;;12.55;43.50;95220.66;5076239;28;20440;-85
2023/04/28 04:22:37;;;;;;;5.50;3.93;;;;;;;12.89;44.39;95214.09;5075716;28;20440;-85
2023/04/28 04:25:04;;;;;;;5.57;3.60;;;;;;;13.40;43.15;95217.50;5075617;28;20441;-84
2023/04/28 04:27:31;;;;;;;5.60;4.00;;;;;;;13.71;41.29;95223.44;5024214;28;20925;-84
2023/04/28 04:29:57;;;;;;;5.83;4.03;;;;;;;13.55;40.29;95222.19;5075825;28;20433;-84
2023/04/28 04:32:24;;;;;;;6.63;4.03;;;;;;;14.07;41.89;95227.94;5055059;28;20578;-82
2023/04/28 04:34:51;;;;;;;8.40;4.60;;;;;;;14.41;40.78;95235.31;5054494;28;20946;-84
2023/04/28 04:37:18;;;;;;;5.03;3.63;;;;;;;14.50;43.40;95229.22;5055424;28;21126;-86
2023/04/28 04:39:46;;;;;;;5.00;3.43;;;;;;;14.72;39.53;95233.28;5073930;28;20511;-84
2023/04/28 04:42:13;;;;;;;3.70;3.40;;;;;;;14.96;38.28;95235.38;5064303;28;20457;-84
2023/04/28 04:44:40;;;;;;;11.97;3.50;;;;;;;14.94;40.56;95235.53;5067985;28;20463;-84
2023/04/28 04:47:06;;;;;;;4.03;3.63;;;;;;;15.12;39.50;95240.84;5075516;28;20442;-83
2023/04/28 04:49:33;;;;;;;4.13;3.30;;;;;;;15.58;38.01;95241.63;5075287;28;20506;-84
2023/04/28 04:52:00;;;;;;;9.83;3.53;;;;;;;15.73;37.10;95240.13;5073188;28;20506;-84
2023/04/28 04:54:27;;;;;;;5.00;3.70;;;;;;;15.60;36.88;95240.50;5074809;28;21403;-85
2023/04/28 04:56:55;;;;;;;5.27;4.23;;;;;;;15.63;36.87;95240.22;5074790;28;20512;-86
2023/04/28 04:59:22;;;;;;;7.70;3.87;;;;;;;15.59;36.71;95238.84;5075449;28;20421;-85
2023/04/28 05:01:49;;;;;;;4.43;3.80;;;;;;;15.62;39.45;95249.16;5075811;28;20448;-85
2023/04/28 05:04:15;;;;;;;6.00;4.23;;;;;;;15.27;36.01;95249.91;5075406;28;20449;-86
2023/04/28 05:06:42;;;;;;;5.40;3.90;;;;;;;14.86;36.76;95246.00;5075339;28;20444;-85
2023/04/28 05:09:09;;;;;;;4.37;3.97;;;;;;;14.80;39.86;95241.31;5075043;28;20438;-85
2023/04/28 05:11:36;;;;;;;7.80;5.83;;;;;;;14.80;37.92;95242.16;5075095;28;20448;-85
2023/04/28 05:14:04;;;;;;;7.00;4.33;;;;;;;15.06;38.03;95252.84;5075202;28;20469;-85
2023/04/28 05:16:31;;;;;;;9.40;4.30;;;;;;;15.32;39.15;95247.66;5074644;28;20843;-85
2023/04/28 05:18:58;;;;;;;6.67;4.40;;;;;;;15.20;36.13;95251.50;5074250;28;20789;-86
2023/04/28 05:21:25;;;;;;;5.43;4.00;;;;;;;15.16;37.24;95252.78;5072616;28;20451;-85
2023/04/28 05:23:52;;;;;;;6.37;3.53;;;;;;;14.82;37.13;95239.38;5074843;28;20436;-86
2023/04/28 05:26:19;;;;;;;3.87;3.53;;;;;;;14.74;37.71;95248.00;5074745;28;20516;-86
2023/04/28 05:35:31;;;;;;;11.77;4.30;;;;;;;14.21;39.01;95245.16;5074954;28;20935;-86
2023/04/28 05:37:58;;;;;;;4.90;3.80;;;;;;;14.01;39.42;95247.00;5074583;28;20592;-86
2023/04/28 05:40:26;;;;;;;5.80;4.20;;;;;;;13.93;39.70;95250.34;5075141;28;20430;-86
2023/04/28 05:42:53;;;;;;;8.30;4.20;;;;;;;14.06;39.60;95247.38;5074868;28;20508;-86
2023/04/28 05:45:20;;;;;;;4.13;3.70;;;;;;;14.14;39.40;95242.22;5074552;28;20507;-87
2023/04/28 05:47:47;;;;;;;7.80;4.87;;;;;;;14.46;39.96;95238.44;5074807;28;20486;-86
2023/04/28 05:50:13;;;;;;;6.83;4.57;;;;;;;14.44;38.53;95243.81;5074859;28;20451;-86
2023/04/28 05:52:42;;;;;;;7.20;4.00;;;;;;;14.45;40.48;95249.94;5074223;28;20437;-87
2023/04/28 05:55:09;;;;;;;6.23;4.40;;;;;;;14.83;38.89;95246.31;5072805;28;20444;-86
2023/04/28 05:57:36;;;;;;;5.70;3.70;;;;;;;14.43;39.71;95247.44;5039350;28;20449;-86
2023/04/28 06:00:03;;;;;;;5.00;4.50;;;;;;;14.42;39.31;95248.38;5073990;28;20447;-86
2023/04/28 06:02:30;;;;;;;4.17;3.77;;;;;;;14.20;39.62;95246.13;5074442;28;20459;-85
2023/04/28 06:04:57;;;;;;;5.83;4.57;;;;;;;14.08;40.78;95245.44;5074255;28;20427;-85
2023/04/28 06:07:23;;;;;;;7.20;4.60;;;;;;;14.11;39.57;95246.94;5074192;28;20439;-84
2023/04/28 06:09:52;;;;;;;4.97;3.63;;;;;;;14.12;39.79;95251.25;5074536;28;20503;-85
2023/04/28 06:12:18;;;;;;;5.83;3.77;;;;;;;14.20;39.38;95243.47;5073328;28;20504;-87
2023/04/28 06:14:45;;;;;;;5.30;4.10;;;;;;;14.23;39.36;95246.66;5072864;28;20513;-85
2023/04/28 06:17:12;;;;;;;10.07;4.30;;;;;;;14.16;43.05;95242.91;5072615;28;20461;-85
2023/04/28 06:19:39;;;;;;;13.90;7.40;;;;;;;14.48;42.97;95249.66;5072703;28;20829;-86
2023/04/28 06:22:06;;;;;;;34.93;20.60;;;;;;;14.78;44.08;95252.03;5072720;28;20446;-85
2023/04/28 06:24:33;;;;;;;13.50;7.70;;;;;;;15.00;37.58;95245.50;5072935;28;20448;-87
2023/04/28 06:27:01;;;;;;;20.07;11.50;;;;;;;15.22;39.50;95241.59;5072562;28;20451;-86
2023/04/28 06:29:28;;;;;;;6.83;5.23;;;;;;;15.56;40.06;95249.69;5072721;28;20443;-84
2023/04/28 06:31:56;;;;;;;9.97;6.77;;;;;;;15.59;38.41;95253.88;5072443;28;20510;-85
2023/04/28 06:34:26;;;;;;;35.17;5.10;;;;;;;15.59;37.90;95253.88;5073204;28;20822;-84
2023/04/28 06:36:52;;;;;;;5.40;4.37;;;;;;;15.32;36.44;95252.09;5072775;28;20527;-85
2023/04/28 06:39:19;;;;;;;7.23;4.33;;;;;;;15.23;46.00;95237.16;5036888;28;20460;-83
2023/04/28 06:41:47;;;;;;;6.43;4.53;;;;;;;15.29;38.84;95247.94;5075556;28;20842;-84
2023/04/28 06:44:15;;;;;;;4.53;4.10;;;;;;;15.63;41.94;95249.97;5076067;28;20966;-84
2023/04/28 06:46:42;;;;;;;11.97;6.53;;;;;;;16.01;37.66;95248.78;5076049;28;20509;-83
2023/04/28 06:49:09;;;;;;;6.60;4.70;;;;;;;16.16;35.71;95251.69;5075169;28;20948;-87
2023/04/28 06:51:36;;;;;;;7.00;5.10;;;;;;;16.24;37.89;95239.34;5072611;28;20804;-85
2023/04/28 06:54:02;;;;;;;7.93;4.13;;;;;;;16.29;40.41;95226.47;5069816;28;20476;-86
2023/04/28 06:56:29;;;;;;;5.90;4.63;;;;;;;16.67;37.68;95241.09;5075061;28;20463;-85
2023/04/28 06:58:57;;;;;;;4.83;4.33;;;;;;;16.81;34.07;95242.34;5075360;28;20449;-83
2023/04/28 07:01:25;;;;;;;6.80;4.17;;;;;;;16.60;43.37;95244.53;5074764;28;20916;-86
2023/04/28 07:03:52;;;;;;;4.90;3.90;;;;;;;16.17;35.33;95232.16;5072492;28;20456;-87
2023/04/28 07:06:19;;;;;;;4.37;3.97;;;;;;;15.85;37.44;95252.13;5069835;28;20441;-85
2023/04/28 07:08:46;;;;;;;4.17;3.77;;;;;;;15.42;34.83;95237.84;5067954;28;20449;-84
2023/04/28 07:11:13;;;;;;;6.83;5.80;;;;;;;15.40;35.52;95245.09;5075512;28;20490;-85
2023/04/28 07:13:40;;;;;;;7.00;4.80;;;;;;;15.08;36.38;95242.97;5074545;28;20472;-86
2023/04/28 07:16:07;;;;;;;6.93;4.80;;;;;;;14.97;39.82;95226.47;5075960;28;20447;-85
2023/04/28 07:18:35;;;;;;;4.50;4.10;;;;;;;14.50;45.67;95237.16;5075541;28;20780;-85
2023/04/28 07:21:02;;;;;;;5.57;4.00;;;;;;;15.08;38.19;95237.69;5075045;28;20647;-86
2023/04/28 07:23:28;;;;;;;5.60;3.40;;;;;;;15.51;39.46;95244.03;5076510;28;20441;-87
2023/04/28 07:25:55;;;;;;;8.83;3.60;;;;;;;15.97;38.55;95239.50;5075548;28;20870;-85
2023/04/28 07:28:22;;;;;;;4.23;3.80;;;;;;;16.36;35.10;95239.91;5075497;28;20447;-86
2023/04/28 07:30:49;;;;;;;7.77;3.90;;;;;;;16.50;36.63;95235.88;5075266;28;20449;-86
2023/04/28 07:33:15;;;;;;;3.90;3.60;;;;;;;16.59;34.54;95240.22;5074207;28;20551;-86
2023/04/28 07:35:44;;;;;;;5.73;4.77;;;;;;;16.57;34.58;95240.38;5071055;28;20716;-87
2023/04/28 07:38:11;;;;;;;4.40;4.00;;;;;;;16.67;34.37;95229.66;5039284;28;20886;-86
2023/04/28 07:40:38;;;;;;;5.67;4.43;;;;;;;16.92;39.56;95236.72;5072817;28;20439;-87
2023/04/28 07:43:04;;;;;;;5.00;3.83;;;;;;;16.99;34.14;95236.91;5074817;28;20966;-88
2023/04/28 07:45:31;;;;;;;5.07;3.60;;;;;;;16.97;35.62;95241.56;5075247;28;20458;-85
2023/04/28 07:47:58;;;;;;;4.70;3.50;;;;;;;16.94;32.98;95242.72;5074655;28;20444;-86
2023/04/28 07:50:25;;;;;;;4.93;3.87;;;;;;;16.88;34.94;95237.22;5073917;28;20782;-87
2023/04/28 07:52:53;;;;;;;5.70;4.17;;;;;;;16.65;35.23;95237.75;5074465;28;20457;-87
2023/04/28 07:55:20;;;;;;;7.40;4.40;;;;;;;16.23;34.41;95239.50;5074680;28;20478;-86
2023/04/28 07:57:48;;;;;;;7.27;3.60;;;;;;;15.94;34.32;95242.47;5075443;28;20798;-86
2023/04/28 08:00:16;;;;;;;4.13;3.83;;;;;;;15.80;34.05;95236.72;5074131;28;20998;-85
2023/04/28 08:02:43;;;;;;;5.87;4.30;;;;;;;15.95;35.05;95237.00;5074433;28;20967;-87
2023/04/28 08:05:10;;;;;;;6.23;4.23;;;;;;;15.83;35.10;95235.56;5075038;28;20452;-87
2023/04/28 08:07:37;;;;;;;11.00;4.13;;;;;;;16.13;40.69;95238.75;5074802;28;20446;-86
2023/04/28 08:10:06;;;;;;;7.13;3.63;;;;;;;16.62;34.88;95231.94;5074453;28;20480;-86
2023/04/28 08:12:32;;;;;;;3.90;3.53;;;;;;;16.98;33.50;95235.25;5072287;28;20938;-84
2023/04/28 08:14:59;;;;;;;7.00;4.60;;;;;;;16.97;33.56;95230.94;5074516;28;20833;-87
2023/04/28 08:17:26;;;;;;;4.37;3.97;;;;;;;17.10;34.69;95234.00;5071198;28;20449;-85
2023/04/28 08:19:53;;;;;;;3.97;3.67;;;;;;;16.96;33.48;95229.28;5060022;28;20791;-85
2023/04/28 08:22:20;;;;;;;5.20;3.90;;;;;;;17.00;34.62;95227.97;5054764;28;20442;-86
2023/04/28 08:24:46;;;;;;;4.87;3.80;;;;;;;16.87;33.98;95230.25;5073530;28;20437;-86
2023/04/28 08:27:15;;;;;;;5.60;3.83;;;;;;;16.83;34.67;95234.22;5073751;28;20506;-85
2023/04/28 08:29:42;;;;;;;5.10;4.60;;;;;;;17.14;34.31;95221.22;5074470;28;20444;-87
2023/04/28 08:32:09;;;;;;;6.47;4.13;;;;;;;17.28;33.31;95232.03;5074183;28;20444;-85
2023/04/28 08:34:35;;;;;;;6.63;4.00;;;;;;;17.10;33.45;95223.38;5073666;28;21048;-85
2023/04/28 08:37:03;;;;;;;4.67;4.03;;;;;;;16.93;33.03;95219.84;5073661;28;20468;-86
2023/04/28 08:39:30;;;;;;;7.23;4.13;;;;;;;17.02;32.93;95213.56;5074151;28;20508;-86
2023/04/28 08:41:57;;;;;;;5.60;3.80;;;;;;;17.08;32.42;95220.06;5080215;28;20466;-85
2023/04/28 08:44:25;;;;;;;7.27;3.70;;;;;;;16.95;33.50;95217.84;5082205;28;20449;-85
2023/04/28 08:46:56;;;;;;;5.40;4.13;;;;;;;17.18;33.93;95219.91;5047257;28;20480;-84
2023/04/28 08:49:32;;;;;;;3.70;3.40;;;;;;;17.28;33.14;95202.84;5085412;28;20436;-84
2023/04/28 08:52:00;;;;;;;5.77;4.33;;;;;;;17.36;32.87;95212.66;5084839;28;20504;-84
2023/04/28 08:54:30;;;;;;;6.60;4.23;;;;;;;17.20;33.09;95199.34;5084891;28;20484;-85
2023/04/28 08:56:58;;;;;;;4.90;3.97;;;;;;;17.30;33.06;95205.34;5085512;28;20455;-85
2023/04/28 08:59:26;;;;;;;10.43;5.10;;;;;;;17.22;34.08;95214.13;5085211;28;20447;-84
2023/04/28 09:01:53;;;;;;;4.33;3.93;;;;;;;16.84;32.38;95204.06;5082350;28;20444;-85
2023/04/28 09:04:20;;;;;;;15.73;4.20;;;;;;;16.80;33.31;95202.75;5063433;28;20444;-84
2023/04/28 09:06:47;;;;;;;4.70;3.87;;;;;;;17.02;36.92;95202.13;5080595;28;21069;-83
2023/04/28 09:09:21;;;;;;;6.87;4.37;;;;;;;17.03;31.58;95207.25;5081486;28;20476;-83
2023/04/28 09:11:57;;;;;;;4.73;4.10;;;;;;;17.04;33.50;95189.53;5082591;28;20451;-84
2023/04/28 09:14:25;;;;;;;6.20;4.37;;;;;;;16.87;32.72;95187.84;5082213;28;20583;-84
2023/04/28 09:16:52;;;;;;;6.97;5.07;;;;;;;16.90;34.79;95192.81;5085677;28;20443;-85
2023/04/28 09:19:20;;;;;;;3.90;3.60;;;;;;;16.73;33.48;95190.09;5077010;28;20880;-84
2023/04/28 09:21:48;;;;;;;12.57;4.97;;;;;;;16.80;33.12;95187.66;5078495;28;20447;-84
2023/04/28 09:24:26;;;;;;;11.47;4.50;;;;;;;16.61;37.22;95182.59;5075008;28;20537;-85
2023/04/28 09:26:53;;;;;;;5.90;4.23;;;;;;;16.46;32.99;95169.09;5074650;28;20447;-84
2023/04/28 09:29:20;;;;;;;4.93;4.50;;;;;;;16.67;32.57;95176.69;5075724;28;20486;-83
2023/04/28 09:31:48;;;;;;;5.30;4.30;;;;;;;16.87;33.67;95175.44;5078438;28;20492;-85
2023/04/28 09:34:15;;;;;;;4.47;3.50;;;;;;;16.89;35.00;95175.25;5086550;28;21053;-84
2023/04/28 09:36:42;;;;;;;5.03;4.50;;;;;;;16.60;32.22;95178.28;5084186;28;20477;-84
2023/04/28 09:39:10;;;;;;;4.50;4.10;;;;;;;16.71;33.01;95162.94;5077843;28;20800;-85
2023/04/28 09:41:39;;;;;;;7.53;4.50;;;;;;;16.81;32.92;95165.47;5079059;28;20482;-84
2023/04/28 09:44:17;;;;;;;7.43;4.00;;;;;;;16.90;34.32;95153.88;5072853;28;20458;-84
2023/04/28 09:46:45;;;;;;;4.00;3.70;;;;;;;16.78;33.89;95160.50;5072339;28;20795;-87
2023/04/28 09:49:14;;;;;;;7.80;3.87;;;;;;;16.69;32.65;95151.66;5072667;28;20446;-86
2023/04/28 09:51:41;;;;;;;3.77;3.47;;;;;;;16.47;32.67;95154.88;5071863;28;20447;-85
2023/04/28 09:54:07;;;;;;;5.47;3.87;;;;;;;16.35;35.33;95149.03;5072695;28;20503;-86
2023/04/28 09:56:37;;;;;;;5.47;4.00;;;;;;;16.30;34.24;95145.22;5072758;28;20993;-86
2023/04/28 09:59:04;;;;;;;7.60;4.13;;;;;;;16.26;33.29;95147.34;5072497;28;20437;-85
2023/04/28 10:01:33;;;;;;;6.00;3.83;;;;;;;16.16;33.90;95149.25;5072305;28;20441;-86
2023/04/28 10:04:02;;;;;;;6.97;3.50;;;;;;;16.23;33.91;95136.25;5073255;28;20433;-85
2023/04/28 10:06:30;;;;;;;4.70;3.97;;;;;;;16.35;34.51;95129.66;5072478;28;20530;-83
2023/04/28 10:08:59;;;;;;;6.70;3.60;;;;;;;16.30;32.89;95126.66;5073203;28;20447;-85
2023/04/28 10:11:27;;;;;;;4.20;3.80;;;;;;;15.80;34.38;95124.75;5072912;28;20452;-85
2023/04/28 10:13:54;;;;;;;4.97;4.57;;;;;;;15.91;34.06;95124.50;5072256;28;20442;-87
2023/04/28 10:16:24;;;;;;;4.53;3.67;;;;;;;15.89;33.96;95118.50;5075320;28;20445;-85
2023/04/28 10:18:53;;;;;;;4.80;3.88;;;;;;;15.85;32.78;95118.97;5076407;28;20434;-85
2023/04/28 10:21:25;;;;;;;4.60;3.53;;;;;;;15.72;33.35;95124.72;5076048;28;20195;-85
2023/04/28 10:24:15;;;;;;;4.47;3.20;;;;;;;15.76;32.73;95123.41;5074725;28;20450;-85
2023/04/28 10:27:03;;;;;;;6.83;3.00;;;;;;;15.97;37.85;95126.50;5072059;28;20467;-87
2023/04/28 10:29:31;;;;;;;3.97;3.57;;;;;;;15.97;33.68;95121.22;5074819;28;20506;-87
2023/04/28 10:32:18;;;;;;;9.07;3.30;;;;;;;16.11;33.56;95117.13;5075277;28;20466;-87
2023/04/28 10:34:54;;;;;;;5.70;3.27;;;;;;;16.20;31.97;95113.56;5074621;28;21060;-87
2023/04/28 10:37:42;;;;;;;8.33;3.20;;;;;;;16.18;33.28;95114.69;5077386;28;20485;-86
2023/04/28 10:40:33;;;;;;;3.73;3.23;;;;;;;16.00;36.09;95110.31;5076170;28;20485;-87
2023/04/28 10:43:00;;;;;;;3.33;2.83;;;;;;;16.05;32.51;95100.06;5071017;28;20516;-87
2023/04/28 10:46:04;;;;;;;8.10;3.80;;;;;;;15.93;32.84;95093.41;5071959;28;20536;-87
2023/04/28 10:48:52;;;;;;;13.30;3.83;;;;;;;16.11;33.29;95090.66;5010054;28;20956;-87
2023/04/28 10:51:30;;;;;;;9.70;3.70;;;;;;;16.20;33.32;95089.72;5010012;28;20495;-87
2023/04/28 10:54:14;;;;;;;3.40;3.10;;;;;;;16.18;36.06;95091.69;5009068;28;20448;-87
2023/04/28 10:57:02;;;;;;;3.50;2.63;;;;;;;16.21;32.90;95087.91;5009654;28;20456;-87
2023/04/28 10:59:30;;;;;;;4.63;3.73;;;;;;;16.29;34.18;95082.66;5009915;28;20443;-87
2023/04/28 11:02:38;;;;;;;5.23;3.70;;;;;;;16.38;33.43;95089.63;5010939;28;20526;-87
2023/04/28 11:05:17;;;;;;;4.00;3.60;;;;;;;16.30;34.11;95085.13;5014371;28;20835;-86
2023/04/28 11:08:30;;;;;;;4.60;3.00;;;;;;;16.17;31.96;95078.59;5010893;28;20424;-86
2023/04/28 11:11:20;;;;;;;4.03;3.60;;;;;;;16.32;31.97;95074.38;5010925;28;20436;-87
2023/04/28 11:13:49;;;;;;;7.43;3.07;;;;;;;16.45;32.99;95072.09;5008116;28;20453;-87
2023/04/28 11:16:18;;;;;;;7.87;3.70;;;;;;;16.68;33.35;95065.22;5010861;28;20474;-86
2023/04/28 11:19:02;;;;;;;3.43;3.13;;;;;;;16.53;32.72;95066.81;5010060;28;20539;-86
2023/04/28 11:21:29;;;;;;;4.97;3.30;;;;;;;16.56;32.78;95063.84;4997632;28;20450;-86
2023/04/28 11:23:57;;;;;;;6.50;3.13;;;;;;;16.53;34.41;95061.53;5010197;28;20862;-87
2023/04/28 11:26:25;;;;;;;7.00;2.80;;;;;;;16.59;31.62;95057.41;5055625;28;21282;-86
2023/04/28 11:28:55;;;;;;;4.20;2.90;;;;;;;16.56;31.24;95063.84;5076850;28;20507;-87
2023/04/28 11:31:23;;;;;;;4.33;3.00;;;;;;;16.42;31.33;95060.00;5076863;28;20446;-86
2023/04/28 11:40:56;;;;;;;3.27;3.07;;;;;;;16.46;34.00;95041.13;5058601;28;21343;-87
2023/04/28 11:43:29;;;;;;;12.03;3.63;;;;;;;16.64;32.77;95045.31;5077826;28;20438;-86
2023/04/28 11:45:57;;;;;;;3.93;3.30;;;;;;;16.76;32.54;95045.00;5077416;28;20448;-87
2023/04/28 11:48:24;;;;;;;5.40;2.90;;;;;;;16.92;32.53;95037.09;5077146;28;20443;-86
2023/04/28 11:50:51;;;;;;;8.03;3.47;;;;;;;17.03;30.96;95034.94;5076550;28;20433;-86
2023/04/28 11:53:18;;;;;;;5.47;3.93;;;;;;;17.09;31.78;95022.84;5077959;28;20462;-87
2023/04/28 11:55:45;;;;;;;9.33;3.17;;;;;;;17.21;31.49;95032.13;5077398;28;20577;-87
2023/04/28 11:58:18;;;;;;;2.53;2.23;;;;;;;16.96;30.32;95027.81;5077232;28;20450;-85
2023/04/28 12:00:45;;;;;;;6.80;3.17;;;;;;;16.74;30.37;95031.94;5076236;28;20791;-86
2023/04/28 12:03:13;;;;;;;5.53;2.60;;;;;;;16.58;30.64;95024.78;5076589;28;20439;-86
2023/04/28 12:06:04;;;;;;;4.53;3.43;;;;;;;16.57;30.18;95012.53;5076943;28;20781;-86
2023/04/28 12:08:31;;;;;;;2.40;2.20;;;;;;;16.57;32.55;95020.47;5076601;28;20512;-86